Time;durP1;ratioP1;P1;durP2;ratioP2;P2;SDS_P1;SDS_P2;PMS_P1;PMS_P2;Temp;Humidity;BMP_temperature;BMP_pressure;BME280_temperature;BME280_humidity;BME280_pressure;Samples;Min_cycle;Max_cycle;Signal;HPM_P1;HPM_P2
2022/02/03 00:01:08;;;;;;;13.63;6.63;;;;;;;;;;5034379;28;20382;-62
2022/02/03 00:04:13;;;;;;;12.55;6.55;;;;;;;;;;5034396;28;20488;-62
2022/02/03 00:06:35;;;;;;;16.63;6.55;;;;;;;;;;5031314;28;20088;-62
2022/02/03 00:09:49;;;;;;;14.93;6.30;;;;;;;;;;5034210;28;20029;-62
2022/02/03 00:25:26;;;;;;;12.10;5.90;;;;;;;;;;5033948;28;20025;-61
2022/02/03 00:28:20;;;;;;;14.55;5.90;;;;;;;;;;5033876;28;20022;-61
2022/02/03 00:33:28;;;;;;;9.25;4.63;;;;;;;;;;5033771;28;20539;-61
2022/02/03 00:49:37;;;;;;;11.90;4.40;;;;;;;;;;5033512;28;20044;-62
2022/02/03 00:52:04;;;;;;;10.45;3.85;;;;;;;;;;5033497;28;20452;-62
2022/02/03 00:54:32;;;;;;;10.65;3.38;;;;;;;;;;5032146;28;20120;-62
2022/02/03 00:57:03;;;;;;;9.93;3.70;;;;;;;;;;5033350;28;20508;-62
2022/02/03 00:59:30;;;;;;;8.65;3.05;;;;;;;;;;5033380;28;20033;-62
2022/02/03 01:01:57;;;;;;;5.82;3.05;;;;;;;;;;5033385;28;20018;-62
2022/02/03 01:04:25;;;;;;;7.85;3.58;;;;;;;;;;5033045;28;20439;-62
2022/02/03 01:06:55;;;;;;;8.18;3.17;;;;;;;;;;5032872;28;20509;-62
2022/02/03 01:09:24;;;;;;;8.68;3.33;;;;;;;;;;5033049;28;20024;-62
2022/02/03 01:11:59;;;;;;;4.97;2.65;;;;;;;;;;5032911;28;20753;-62
2022/02/03 01:14:56;;;;;;;7.32;3.30;;;;;;;;;;5033216;28;20017;-62
2022/02/03 01:52:34;;;;;;;4.60;2.22;;;;;;;;;;5032746;28;20382;-62
2022/02/03 01:55:01;;;;;;;5.95;2.20;;;;;;;;;;5032744;28;20502;-62
2022/02/03 01:57:37;;;;;;;5.97;2.47;;;;;;;;;;5033021;28;20033;-62
2022/02/03 02:00:11;;;;;;;7.30;2.30;;;;;;;;;;5032684;28;20033;-62
2022/02/03 02:02:41;;;;;;;8.90;2.78;;;;;;;;;;5032793;28;20083;-62
2022/02/03 02:05:20;;;;;;;6.28;2.60;;;;;;;;;;5031415;28;20124;-63
2022/02/03 02:08:05;;;;;;;6.20;3.03;;;;;;;;;;5032723;28;20049;-63
2022/02/03 02:13:16;;;;;;;8.07;3.42;;;;;;;;;;5032629;28;20028;-63
2022/02/03 02:37:53;;;;;;;7.60;3.28;;;;;;;;;;5035973;28;20531;-62
2022/02/03 02:40:48;;;;;;;9.00;3.28;;;;;;;;;;5034700;28;20042;-62
2022/02/03 02:43:14;;;;;;;7.35;2.60;;;;;;;;;;5035595;28;20373;-62
2022/02/03 02:45:59;;;;;;;7.13;2.45;;;;;;;;;;5035917;28;20104;-62
2022/02/03 02:48:43;;;;;;;6.35;2.72;;;;;;;;;;5035948;28;20116;-62
2022/02/03 02:51:17;;;;;;;9.18;2.97;;;;;;;;;;5036009;28;20033;-62
2022/02/03 03:30:06;;;;;;;8.85;3.33;;;;;;;;;;5034793;28;20045;-62
2022/02/03 03:32:52;;;;;;;8.32;2.88;;;;;;;;;;5035031;28;20075;-62
2022/02/03 03:35:43;;;;;;;6.97;2.70;;;;;;;;;;5034974;28;20072;-62
2022/02/03 03:38:11;;;;;;;7.07;3.13;;;;;;;;;;5034817;28;20021;-62
2022/02/03 03:40:41;;;;;;;14.63;4.10;;;;;;;;;;5034861;28;20029;-63
2022/02/03 03:43:08;;;;;;;13.65;4.25;;;;;;;;;;5034096;28;20029;-62
2022/02/03 03:45:38;;;;;;;13.95;4.30;;;;;;;;;;5034495;28;20147;-61
2022/02/03 03:48:06;;;;;;;13.73;3.97;;;;;;;;;;5034449;28;20454;-62
2022/02/03 03:50:37;;;;;;;11.73;4.07;;;;;;;;;;5034669;28;20043;-62
2022/02/03 03:53:12;;;;;;;11.40;4.32;;;;;;;;;;5033010;28;20022;-62
2022/02/03 04:39:06;;;;;;;7.47;3.45;;;;;;;;;;5033358;28;20048;-62
2022/02/03 05:04:52;;;;;;;13.18;3.38;;;;;;;;;;5033104;28;20032;-62
2022/02/03 05:11:00;;;;;;;8.82;3.20;;;;;;;;;;5033304;28;20038;-62
2022/02/03 05:13:15;;;;;;;10.35;4.00;;;;;;;;;;5025507;28;20136;-62
2022/02/03 05:44:55;;;;;;;15.95;7.65;;;;;;;;;;5032956;28;20035;-63
2022/02/03 06:01:30;;;;;;;13.82;4.32;;;;;;;;;;5032687;28;20539;-62
2022/02/03 06:04:11;;;;;;;12.27;3.72;;;;;;;;;;5032787;28;20022;-62
2022/02/03 06:09:27;;;;;;;11.23;6.38;;;;;;;;;;5036526;28;20037;-62
2022/02/03 06:14:52;;;;;;;18.85;7.68;;;;;;;;;;5036466;28;20036;-63
2022/02/03 06:17:32;;;;;;;24.05;9.13;;;;;;;;;;5036433;28;20091;-62
2022/02/03 06:22:48;;;;;;;24.23;9.30;;;;;;;;;;5036227;28;20083;-62
2022/02/03 06:27:46;;;;;;;23.10;10.30;;;;;;;;;;5036128;28;20039;-62
2022/02/03 06:30:14;;;;;;;25.33;11.80;;;;;;;;;;5035975;28;20596;-62
2022/02/03 06:32:41;;;;;;;12.85;6.93;;;;;;;;;;5036032;28;20029;-62
2022/02/03 06:35:08;;;;;;;16.20;6.93;;;;;;;;;;5035976;28;20374;-62
2022/02/03 06:37:35;;;;;;;15.65;4.72;;;;;;;;;;5034828;28;20406;-62
2022/02/03 06:40:01;;;;;;;17.42;6.90;;;;;;;;;;5035490;28;20128;-62
2022/02/03 06:42:27;;;;;;;16.42;6.75;;;;;;;;;;5035721;28;20053;-61
2022/02/03 06:45:06;;;;;;;17.27;8.32;;;;;;;;;;5035796;28;20032;-62
2022/02/03 06:47:47;;;;;;;17.08;7.70;;;;;;;;;;5034042;28;20084;-62
2022/02/03 06:53:03;;;;;;;16.90;7.43;;;;;;;;;;5035623;28;20057;-62
2022/02/03 06:55:42;;;;;;;33.22;13.07;;;;;;;;;;5035739;28;20049;-63
2022/02/03 06:58:17;;;;;;;47.13;16.95;;;;;;;;;;5034180;28;20420;-62
2022/02/03 07:00:55;;;;;;;25.30;9.77;;;;;;;;;;5034272;28;20026;-62
2022/02/03 07:03:24;;;;;;;19.50;7.80;;;;;;;;;;5033770;28;20061;-63
2022/02/03 07:05:50;;;;;;;20.10;6.65;;;;;;;;;;5034261;28;20319;-61
2022/02/03 07:08:18;;;;;;;16.92;8.25;;;;;;;;;;5035696;28;20048;-63
2022/02/03 07:10:46;;;;;;;21.45;7.65;;;;;;;;;;5015328;28;20367;-62
2022/02/03 07:13:14;;;;;;;64.88;28.40;;;;;;;;;;5015400;28;20018;-62
2022/02/03 07:15:40;;;;;;;28.63;10.88;;;;;;;;;;5014918;28;20030;-62
2022/02/03 07:18:06;;;;;;;22.45;9.68;;;;;;;;;;5014576;28;20076;-62
2022/02/03 07:20:34;;;;;;;28.17;12.95;;;;;;;;;;5015316;28;20029;-62
2022/02/03 07:23:01;;;;;;;26.55;11.15;;;;;;;;;;5015199;28;20080;-62
2022/02/03 07:25:27;;;;;;;22.65;9.15;;;;;;;;;;5023315;28;20021;-63
2022/02/03 07:27:53;;;;;;;22.45;8.18;;;;;;;;;;5018484;28;20026;-62
2022/02/03 07:30:19;;;;;;;21.30;8.40;;;;;;;;;;5014681;28;20022;-62
2022/02/03 07:32:46;;;;;;;20.15;7.65;;;;;;;;;;5014779;28;20037;-62
2022/02/03 07:35:12;;;;;;;21.83;8.93;;;;;;;;;;5014772;28;20022;-62
2022/02/03 07:37:42;;;;;;;28.58;11.43;;;;;;;;;;5014670;28;20466;-62
2022/02/03 07:40:09;;;;;;;142.60;57.63;;;;;;;;;;5014247;28;20390;-62
2022/02/03 07:42:35;;;;;;;19.35;8.90;;;;;;;;;;5013302;28;20064;-62
2022/02/03 07:45:01;;;;;;;19.75;7.68;;;;;;;;;;5014127;28;20105;-62
2022/02/03 07:47:27;;;;;;;25.38;11.05;;;;;;;;;;5014065;28;20077;-62
2022/02/03 07:49:54;;;;;;;26.20;10.70;;;;;;;;;;5014412;28;20038;-63
2022/02/03 07:52:20;;;;;;;27.48;9.77;;;;;;;;;;5013187;28;20125;-63
2022/02/03 07:54:46;;;;;;;26.13;10.82;;;;;;;;;;5014140;28;20116;-62
2022/02/03 07:57:13;;;;;;;34.50;14.20;;;;;;;;;;5013483;28;20018;-63
2022/02/03 07:59:40;;;;;;;25.65;10.73;;;;;;;;;;5013526;28;20045;-62
2022/02/03 08:02:07;;;;;;;15.73;7.50;;;;;;;;;;5014409;28;20025;-62
2022/02/03 08:04:41;;;;;;;27.48;9.30;;;;;;;;;;5013883;28;20080;-62
2022/02/03 08:07:07;;;;;;;15.52;8.05;;;;;;;;;;5014166;28;20113;-63
2022/02/03 08:09:47;;;;;;;17.65;7.85;;;;;;;;;;5014165;28;20073;-63
2022/02/03 08:12:14;;;;;;;16.25;5.97;;;;;;;;;;5014177;28;20026;-62
2022/02/03 08:14:45;;;;;;;13.27;5.90;;;;;;;;;;5014038;28;20030;-68
2022/02/03 08:17:21;;;;;;;15.23;7.43;;;;;;;;;;5014105;28;20030;-66
2022/02/03 08:19:55;;;;;;;17.63;6.90;;;;;;;;;;5013974;28;20033;-67
2022/02/03 08:22:49;;;;;;;14.50;5.72;;;;;;;;;;5014313;28;20034;-66
2022/02/03 08:25:16;;;;;;;18.45;8.95;;;;;;;;;;5013227;28;20030;-67
2022/02/03 08:28:26;;;;;;;30.05;11.88;;;;;;;;;;5013720;28;20021;-71
2022/02/03 08:30:58;;;;;;;23.20;8.35;;;;;;;;;;5013783;28;20069;-66
2022/02/03 08:33:24;;;;;;;15.52;5.70;;;;;;;;;;5012407;28;20088;-67
2022/02/03 08:35:51;;;;;;;20.15;6.75;;;;;;;;;;5012581;28;20034;-67
2022/02/03 08:38:22;;;;;;;16.35;6.07;;;;;;;;;;5013766;28;20030;-66
2022/02/03 08:43:15;;;;;;;12.38;4.05;;;;;;;;;;5013763;28;20025;-66
2022/02/03 08:45:42;;;;;;;12.18;5.25;;;;;;;;;;5013892;28;20149;-64
2022/02/03 08:48:08;;;;;;;11.90;3.97;;;;;;;;;;5013813;28;20049;-65
2022/02/03 08:50:36;;;;;;;15.07;4.38;;;;;;;;;;5013536;28;20057;-62
2022/02/03 08:53:08;;;;;;;20.75;7.68;;;;;;;;;;5013614;28;20116;-64
2022/02/03 09:59:49;;;;;;;17.98;6.05;;;;;;;;;;5016327;28;20118;-63
2022/02/03 10:02:21;;;;;;;11.90;4.85;;;;;;;;;;5015485;28;20386;-62
2022/02/03 10:04:51;;;;;;;10.57;4.43;;;;;;;;;;5013790;28;20062;-62
2022/02/03 10:07:23;;;;;;;13.75;5.70;;;;;;;;;;5016725;28;20037;-63
2022/02/03 10:09:51;;;;;;;19.50;9.13;;;;;;;;;;5016677;28;20030;-67
2022/02/03 10:12:18;;;;;;;17.33;7.25;;;;;;;;;;5015997;28;20026;-62
2022/02/03 10:14:46;;;;;;;9.98;4.22;;;;;;;;;;5015620;28;20073;-62
2022/02/03 10:17:13;;;;;;;9.73;5.20;;;;;;;;;;5015970;28;20026;-64
2022/02/03 10:19:43;;;;;;;11.43;5.55;;;;;;;;;;5032555;28;20037;-63
2022/02/03 10:22:14;;;;;;;39.22;22.52;;;;;;;;;;5034713;28;20022;-65
2022/02/03 10:24:43;;;;;;;49.57;23.47;;;;;;;;;;5035926;28;20099;-64
2022/02/03 10:27:23;;;;;;;20.13;11.10;;;;;;;;;;5035937;28;20133;-62
2022/02/03 10:30:05;;;;;;;28.33;12.45;;;;;;;;;;5035899;28;20120;-64
2022/02/03 10:32:31;;;;;;;;;;;;;;;;;;5036293;28;20096;-63
2022/02/03 10:34:57;;;;;;;46.78;21.83;;;;;;;;;;5035572;28;19932;-63
2022/02/03 10:37:39;;;;;;;54.78;31.30;;;;;;;;;;5035393;28;20017;-64
2022/02/03 11:07:08;;;;;;;32.80;13.73;;;12.60;68.90;;;;;;5033955;28;20033;-64
2022/02/03 11:09:57;;;;;;;36.65;18.15;;;;;;;;;;5034534;28;20462;-64
2022/02/03 11:12:24;;;;;;;18.65;6.53;;;;;;;;;;5035083;28;20109;-64
2022/02/03 11:14:50;;;;;;;12.90;5.82;;;;;;;;;;5035001;28;20382;-64
2022/02/03 11:17:17;;;;;;;17.92;9.45;;;;;;;;;;5032311;28;20025;-64
2022/02/03 11:19:51;;;;;;;8.70;3.05;;;12.40;66.30;;;;;;5034676;28;20032;-66
2022/02/03 11:22:23;;;;;;;33.55;15.63;;;;;;;;;;5033346;28;20022;-65
2022/02/03 11:25:04;;;;;;;47.85;23.35;;;;;;;;;;5032335;28;20075;-64
2022/02/03 11:27:47;;;;;;;23.42;12.85;;;;;;;;;;5033322;28;20029;-64
2022/02/03 11:33:13;;;;;;;16.42;6.47;;;;;;;;;;5033950;28;20025;-64
2022/02/03 11:39:10;;;;;;;20.10;10.50;;;;;;;;;;5034499;28;20030;-65
2022/02/03 11:41:54;;;;;;;16.20;8.73;;;;;;;;;;5033235;28;20103;-65
2022/02/03 11:47:41;;;;;;;27.73;15.23;;;;;;;;;;5034219;28;20049;-64
2022/02/03 12:01:40;;;;;;;26.63;13.27;;;;;;;;;;5034206;28;20037;-63
2022/02/03 12:17:37;;;;;;;84.70;39.08;;;;;;;;;;5033872;28;20084;-62
2022/02/03 12:20:11;;;;;;;30.60;15.85;;;;;;;;;;5033602;28;20029;-66
2022/02/03 12:22:55;;;;;;;34.30;18.00;;;;;;;;;;5032561;28;20025;-64
2022/02/03 12:25:33;;;;;;;27.02;11.98;;;;;;;;;;5043475;28;20377;-68
2022/02/03 12:38:48;;;;;;;20.83;12.75;;;;;;;;;;5033333;28;20040;-65
2022/02/03 12:41:20;;;;;;;32.35;17.20;;;;;;;;;;5031866;28;20087;-64
2022/02/03 12:43:56;;;;;;;74.15;31.73;;;;;;;;;;5033443;28;20037;-67
2022/02/03 12:46:22;;;;;;;93.82;35.25;;;;;;;;;;5028992;28;20128;-64
2022/02/03 12:48:54;;;;;;;107.28;40.70;;;;;;;;;;5033255;28;20063;-66
2022/02/03 12:51:20;;;;;;;;;;;;;;;;;;5033747;28;20493;-66
2022/02/03 12:53:46;;;;;;;99.35;44.33;;;;;;;;;;5033136;28;19905;-66
2022/02/03 12:56:12;;;;;;;54.67;27.38;;;;;;;;;;5032969;28;20119;-65
2022/02/03 12:58:45;;;;;;;22.42;11.32;;;;;;;;;;5033101;28;20036;-66
2022/02/03 13:01:27;;;;;;;15.82;8.52;;;;;;;;;;5032969;28;20740;-66
2022/02/03 13:03:53;;;;;;;;;;;;;;;;;;5033455;28;20151;-65
2022/02/03 13:06:22;;;;;;;12.10;6.00;;;;;;;;;;5033016;28;20000;-63
2022/02/03 13:08:52;;;;;;;9.35;4.85;;;;;;;;;;5031612;28;20037;-63
2022/02/03 13:11:27;;;;;;;13.65;5.15;;;;;;;;;;5032854;28;20025;-62
2022/02/03 13:16:57;;;;;;;78.10;40.20;;;;;;;;;;5029782;28;20414;-62
2022/02/03 13:27:16;;;;;;;38.00;15.00;;;;;;;;;;5052721;28;20033;-62
2022/02/03 13:29:54;;;;;;;26.48;11.90;;;;;;;;;;5052814;28;20372;-61
2022/02/03 13:32:25;;;;;;;62.08;27.15;;;;;;;;;;5051130;28;20029;-61
2022/02/03 13:35:30;;;;;;;20.73;9.50;;;;;;;;;;5052676;28;20044;-61
2022/02/03 13:37:53;;;;;;;33.30;14.43;;;;;;;;;;5025083;28;20264;-62
2022/02/03 13:40:20;;;;;;;38.15;17.08;;;;;;;;;;5012417;28;20022;-62
2022/02/03 13:42:52;;;;;;;93.45;35.78;;;;;;;;;;5012250;28;20373;-62
2022/02/03 13:45:18;;;;;;;;;;;;;;;;;;5012935;28;20506;-62
2022/02/03 13:47:46;;;;;;;34.00;14.23;;;;;;;;;;5012774;28;19928;-61
2022/02/03 13:50:24;;;;;;;14.63;6.38;;;;;;;;;;5012801;28;20040;-61
2022/02/03 13:53:12;;;;;;;19.27;6.78;;;;;;;;;;5011621;28;20022;-62
2022/02/03 14:15:34;;;;;;;48.22;15.98;;;;;;;;;;5012671;28;20037;-62
2022/02/03 14:20:40;;;;;;;22.67;10.73;;;;;;;;;;5012479;28;20042;-62
2022/02/03 14:28:18;;;;;;;26.08;12.68;;;;;;;;;;5016122;28;20037;-63
2022/02/03 14:30:47;;;;;;;19.85;9.95;;;;;;;;;;5016033;28;20121;-63
2022/02/03 14:33:25;;;;;;;15.93;6.82;;;;;;;;;;5015759;28;20445;-63
2022/02/03 14:35:51;;;;;;;17.05;7.03;;;;;;;;;;5016020;28;20042;-63
2022/02/03 14:38:24;;;;;;;13.15;5.95;;;;;;;;;;5014609;28;20083;-62
2022/02/03 14:41:06;;;;;;;10.70;5.55;;;;;;;;;;5015950;28;20125;-62
2022/02/03 14:43:33;;;;;;;9.82;3.53;;;;;;;;;;5015870;28;20477;-63
2022/02/03 14:46:01;;;;;;;9.02;4.60;;;;;;;;;;5015387;28;20050;-62
2022/02/03 14:48:27;;;;;;;23.90;11.23;;;;;;;;;;5015792;28;20030;-62
2022/02/03 14:50:59;;;;;;;15.07;7.20;;;;;;;;;;5015817;28;20525;-63
2022/02/03 14:53:48;;;;;;;17.95;7.63;;;;;;;;;;5015723;28;20454;-62
2022/02/03 14:59:01;;;;;;;14.05;6.63;;;;;;;;;;5015486;28;20068;-63
2022/02/03 15:01:27;;;;;;;12.80;5.13;;;;;;;;;;5014047;28;20056;-68
2022/02/03 15:03:57;;;;;;;15.00;6.50;;;;;;;;;;5014061;28;20117;-68
2022/02/03 15:06:26;;;;;;;10.90;5.38;;;;;;;;;;5015350;28;20022;-68
2022/02/03 15:09:08;;;;;;;15.20;6.65;;;;;;;;;;5015131;28;20026;-66
2022/02/03 15:11:54;;;;;;;16.58;7.68;;;;;;;;;;5014069;28;20092;-67
2022/02/03 15:14:20;;;;;;;14.80;7.43;;;;;;;;;;5015475;28;20548;-67
2022/02/03 15:16:46;;;;;;;14.50;6.78;;;;;;;;;;5015333;28;20076;-66
2022/02/03 15:19:13;;;;;;;22.55;5.85;;;;;;;;;;5015241;28;20108;-66
2022/02/03 15:21:40;;;;;;;17.88;6.60;;;;;;;;;;5015165;28;20486;-66
2022/02/03 15:24:07;;;;;;;24.95;10.98;;;;;;;;;;5015137;28;20061;-65
2022/02/03 15:26:33;;;;;;;14.90;6.90;;;;;;;;;;5013897;28;20026;-66
2022/02/03 15:28:59;;;;;;;10.98;5.03;;;;;;;;;;5026397;28;20477;-74
2022/02/03 15:31:31;;;;;;;75.35;37.53;;;;;;;;;;5033367;28;20104;-68
2022/02/03 15:34:05;;;;;;;158.40;83.70;;;;;;;;;;5014822;28;20030;-65
2022/02/03 15:36:34;;;;;;;129.00;69.07;;;;;;;;;;5014784;28;20172;-64
2022/02/03 15:39:05;;;;;;;159.82;73.15;;;;;;;;;;5013880;28;20531;-67
2022/02/03 15:41:31;;;;;;;170.30;84.03;;;;;;;;;;5012527;28;20030;-67
2022/02/03 15:44:00;;;;;;;151.15;75.43;;;;;;;;;;5012677;28;20026;-66
2022/02/03 15:46:28;;;;;;;77.32;35.35;;;;;;;;;;5013882;28;20045;-66
2022/02/03 15:49:20;;;;;;;37.50;16.63;;;;;;;;;;5014432;28;20030;-64
2022/02/03 15:57:39;;;;;;;30.65;15.40;;;;;;;;;;5014323;28;20037;-62
2022/02/03 16:14:40;;;;;;;30.50;14.68;;;;;;;;;;5014262;28;20041;-65
2022/02/03 16:19:11;;;;;;;26.75;12.13;;;;;;;;;;5014027;28;20056;-64
2022/02/03 16:21:44;;;;;;;26.35;13.10;;;;;;;;;;5014119;28;20459;-70
2022/02/03 16:24:24;;;;;;;20.63;10.48;;;;;;;;;;5014170;28;20079;-68
2022/02/03 16:51:34;;;;;;;81.28;35.65;;;;;;;;;;5033262;28;20060;-65
2022/02/03 16:54:06;;;;;;;70.72;32.78;;;;;;;;;;5033008;28;20037;-68
2022/02/03 16:56:32;;;;;;;;;;;;;;;;;;5031866;28;20115;-64
2022/02/03 16:58:59;;;;;;;84.38;36.47;;;;;;;;;;5033006;28;19971;-63
2022/02/03 17:01:28;;;;;;;93.70;42.85;;;;;;;;;;5026814;28;20053;-63
2022/02/03 17:03:55;;;;;;;97.13;42.00;;;;;;;;;;5020620;28;20109;-64
2022/02/03 17:06:22;;;;;;;77.82;39.75;;;;;;;;;;5013181;28;20040;-63
2022/02/03 17:08:48;;;;;;;68.72;31.42;;;;;;;;;;5013299;28;20025;-62
2022/02/03 17:11:14;;;;;;;91.47;36.45;;;;;;;;;;5029625;28;20484;-62
2022/02/03 17:13:40;;;;;;;88.22;37.92;;;;;;;;;;5032673;28;20381;-62
2022/02/03 17:16:07;;;;;;;85.43;38.83;;;;;;;;;;5032922;28;20104;-63
2022/02/03 17:18:33;;;;;;;91.30;39.40;;;;;;;;;;5032634;28;20045;-65
2022/02/03 17:20:59;;;;;;;99.72;44.10;;;;;;;;;;5032785;28;20026;-63
2022/02/03 17:23:27;;;;;;;94.93;41.67;;;;;;;;;;5032798;28;20036;-64
2022/02/03 17:26:11;;;;;;;103.97;47.97;;;;;;;;;;5032381;28;20022;-64
2022/02/03 17:31:33;;;;;;;105.20;43.72;;;;;;;;;;5032905;28;20040;-64
2022/02/03 17:54:02;;;;;;;91.93;31.52;;;;;;;;;;5032068;28;20402;-63
2022/02/03 18:09:25;;;;;;;63.15;25.75;;;;;;;;;;5036486;28;20041;-65
2022/02/03 18:37:04;;;;;;;86.68;39.30;;;;;;;;;;5035682;28;20032;-64
2022/02/03 18:50:42;;;;;;;131.98;60.88;;;;;;;;;;5035678;28;20086;-64
2022/02/03 18:58:29;;;;;;;211.80;100.40;;;;;;;;;;5035455;28;20813;-64
2022/02/03 19:14:54;;;;;;;213.25;100.53;;;;;;;;;;5034824;28;20103;-68
2022/02/03 19:25:12;;;;;;;232.63;110.80;;;;;;;;;;5034591;28;20033;-63
2022/02/03 19:27:36;;;;;;;283.45;132.30;;;;;;;;;;5034032;28;20072;-63
2022/02/03 20:08:44;;;;;;;373.48;172.93;;;;;;;;;;5033842;28;20032;-65
2022/02/03 20:11:13;;;;;;;372.13;176.60;;;;;;;;;;5032786;28;20030;-65
2022/02/03 20:13:39;;;;;;;344.30;162.43;;;;;;;;;;5032584;28;20470;-69
2022/02/03 20:16:07;;;;;;;354.23;162.07;;;;;;;;;;5033855;28;20061;-65
2022/02/03 20:18:33;;;;;;;353.25;160.95;;;;;;;;;;5033963;28;20033;-69
2022/02/03 20:20:59;;;;;;;335.42;157.23;;;;;;;;;;5033596;28;20112;-64
2022/02/03 20:23:26;;;;;;;370.60;173.18;;;;;;;;;;5033418;28;20083;-64
2022/02/03 20:25:57;;;;;;;357.60;165.90;;;;;;;;;;5032946;28;20504;-63
2022/02/03 20:28:27;;;;;;;346.33;160.82;;;;;;;;;;5013945;28;20029;-64
2022/02/03 20:30:53;;;;;;;305.17;141.70;;;;;;;;;;5012588;28;20528;-64
2022/02/03 20:33:20;;;;;;;321.45;145.77;;;;;;;;;;5016469;28;20057;-64
2022/02/03 20:35:47;;;;;;;351.10;161.65;;;;;;;;;;5033564;28;20025;-65
2022/02/03 20:38:15;;;;;;;340.13;161.25;;;;;;;;;;5031593;28;20087;-68
2022/02/03 20:40:42;;;;;;;366.20;165.30;;;;;;;;;;5033216;28;20036;-64
2022/02/03 20:43:08;;;;;;;355.17;166.57;;;;;;;;;;5032241;28;20029;-64
2022/02/03 20:45:34;;;;;;;331.65;153.27;;;;;;;;;;5031891;28;20055;-63
2022/02/03 20:48:00;;;;;;;311.35;146.25;;;;;;;;;;5032278;28;20037;-64
2022/02/03 20:50:26;;;;;;;310.13;144.88;;;;;;;;;;5033636;28;20351;-66
2022/02/03 20:52:52;;;;;;;325.05;149.25;;;;;;;;;;5033426;28;20151;-64
2022/02/03 20:55:19;;;;;;;317.08;144.73;;;;;;;;;;5033367;28;20057;-64
2022/02/03 20:57:45;;;;;;;318.50;146.82;;;;;;;;;;5033400;28;20029;-64
2022/02/03 21:03:10;;;;;;;291.55;130.90;;;;;;;;;;5033343;28;20052;-64
2022/02/03 21:05:36;;;;;;;287.75;122.72;;;;;;;;;;5031949;28;20032;-63
2022/02/03 21:08:02;;;;;;;298.30;127.05;;;;;;;;;;5031883;28;20076;-64
2022/02/03 21:10:29;;;;;;;283.65;124.10;;;;;;;;;;5033116;28;20026;-64
2022/02/03 21:12:55;;;;;;;222.18;109.38;;;;;;;;;;5033173;28;20076;-62
2022/02/03 21:15:26;;;;;;;245.88;111.50;;;;;;;;;;5031764;28;20125;-62
2022/02/03 21:17:53;;;;;;;241.77;108.53;;;;;;;;;;5033140;28;20113;-63
2022/02/03 21:20:22;;;;;;;214.57;103.13;;;;;;;;;;5032908;28;20030;-63
2022/02/03 21:22:48;;;;;;;216.32;99.30;;;;;;;;;;5033048;28;20086;-62
2022/02/03 21:25:28;;;;;;;191.73;89.90;;;;;;;;;;5032997;28;20022;-65
2022/02/03 21:27:57;;;;;;;196.77;92.95;;;;;;;;;;5033158;28;20109;-65
2022/02/03 21:30:24;;;;;;;200.82;92.50;;;;;;;;;;5033057;28;20026;-64
2022/02/03 21:32:50;;;;;;;202.23;95.47;;;;;;;;;;5031572;28;20021;-65
2022/02/03 21:35:20;;;;;;;188.63;88.20;;;;;;;;;;5032132;28;20103;-64
2022/02/03 21:37:48;;;;;;;189.73;88.63;;;;;;;;;;5033024;28;20018;-65
2022/02/03 21:40:14;;;;;;;201.57;90.82;;;;;;;;;;5031558;28;20124;-65
2022/02/03 21:42:41;;;;;;;207.70;96.03;;;;;;;;;;5032860;28;20029;-65
2022/02/03 21:45:07;;;;;;;182.35;81.50;;;;;;;;;;5032910;28;20018;-66
2022/02/03 21:47:34;;;;;;;200.45;88.03;;;;;;;;;;5032410;28;20056;-64
2022/02/03 21:50:00;;;;;;;215.30;93.47;;;;;;;;;;5031573;28;20099;-65
2022/02/03 21:52:35;;;;;;;226.02;99.30;;;;;;;;;;5029797;28;20017;-64
2022/02/03 21:55:02;;;;;;;239.70;105.80;;;;;;;;;;5032712;28;20056;-65
2022/02/03 21:57:28;;;;;;;225.45;95.45;;;;;;;;;;5032519;28;20108;-65
2022/02/03 21:59:55;;;;;;;213.35;91.20;;;;;;;;;;5040395;28;20029;-66
2022/02/03 22:02:21;;;;;;;152.55;67.70;;;;;;;;;;5051265;28;20121;-68
2022/02/03 22:04:48;;;;;;;159.63;69.20;;;;;;;;;;5031528;28;20465;-69
2022/02/03 22:07:14;;;;;;;195.65;78.50;;;;;;;;;;5021094;28;20032;-67
2022/02/03 22:09:40;;;;;;;206.75;81.15;;;;;;;;;;5020195;28;20156;-67
2022/02/03 22:12:07;;;;;;;231.88;83.97;;;;;;;;;;5021650;28;20031;-68
2022/02/03 22:14:34;;;;;;;235.95;82.57;;;;;;;;;;5022203;28;20026;-68
2022/02/03 22:17:02;;;;;;;233.18;83.80;;;;;;;;;;5020570;28;20109;-68
2022/02/03 22:19:29;;;;;;;248.65;84.00;;;;;;;;;;5021313;28;20030;-69
2022/02/03 22:22:14;;;;;;;219.43;79.38;;;;;;;;;;5015027;28;20034;-69
2022/02/03 22:42:22;;;;;;;113.15;46.15;;;;;;;;;;5032159;28;20096;-69
2022/02/03 22:46:24;;;;;;;106.45;44.45;;;;;;;;;;5030931;28;20064;-67
2022/02/03 22:48:50;;;;;;;99.40;41.90;;;;;;;;;;5034634;28;20079;-66
2022/02/03 22:51:17;;;;;;;88.93;40.10;;;;;;;;;;5034526;28;20462;-65
2022/02/03 22:53:44;;;;;;;96.28;42.13;;;;;;;;;;5034490;28;20053;-66
2022/02/03 22:56:11;;;;;;;84.43;37.50;;;;;;;;;;5034453;28;20029;-67
2022/02/03 23:01:08;;;;;;;105.97;42.90;;;;;;;;;;5035861;28;20466;-69
2022/02/03 23:03:35;;;;;;;108.43;42.17;;;;;;;;;;5035746;28;20025;-69
2022/02/03 23:06:02;;;;;;;104.57;43.38;;;;;;;;;;5035587;28;20423;-70
2022/02/03 23:08:39;;;;;;;91.93;39.50;;;;;;;;;;5035591;28;20029;-69
2022/02/03 23:11:17;;;;;;;94.35;37.60;;;;;;;;;;5034216;28;20075;-70
2022/02/03 23:16:41;;;;;;;89.55;39.13;;;;;;;;;;5035348;28;20025;-70
2022/02/03 23:21:54;;;;;;;78.55;37.72;;;;;;;;;;5035304;28;20034;-68
2022/02/03 23:24:21;;;;;;;85.72;37.05;;;;;;;;;;5034043;28;20057;-69
2022/02/03 23:26:55;;;;;;;76.63;34.75;;;;;;;;;;5033933;28;20025;-69
2022/02/03 23:29:22;;;;;;;76.47;35.90;;;;;;;;;;5035247;28;20045;-70
2022/02/03 23:32:09;;;;;;;83.40;35.05;;;;;;;;;;5034833;28;20036;-68
2022/02/03 23:34:36;;;;;;;64.70;29.17;;;;;;;;;;5035104;28;20026;-70
2022/02/03 23:37:03;;;;;;;65.38;27.35;;;;;;;;;;5033523;28;20084;-70
2022/02/03 23:39:42;;;;;;;69.60;28.88;;;;;;;;;;5034954;28;20128;-69
2022/02/03 23:50:54;;;;;;;64.80;25.92;;;;;;;;;;5002530;28;20088;-72
